X  Sluiten METAR luchtvaart weer gegevens      EHAM Amsterdam Airport Schiphol
Temperatuur
61°F Temperatuur
55°F Dauwpunt
83% Vochtigheid



Wind
6 MPH
10 KM/U
3 M/S
5 KTS



340°
NNW
Huidig weer

Wat bewolking Wat bewolking
Luchtdruk 1021 (hPa) - 30.15 (inHg)
Zicht 6 (mijl) - 9.7 (km)
Vliegveld
Vliegveld code EHAM

Locatie : Amsterdam Airport Schiphol
Afstand: 40 (mi)

Metar:
EHAM 240455Z 34005KT 310V010 9999 FEW018 SCT025 16/13 Q1021 NOSIG

Tijd: 24-07-2024 06:55 CEST